sensor_id;sensor_type;location;lat;lon;timestamp;temperature;humidity
12771;DHT22;6449;47.666;9.160;2024-03-02T00:01:27;5.20;99.90
12771;DHT22;6449;47.666;9.160;2024-03-02T00:06:22;5.20;99.90
12771;DHT22;6449;47.666;9.160;2024-03-02T00:11:16;5.20;99.90
12771;DHT22;6449;47.666;9.160;2024-03-02T00:16:10;5.30;99.90
12771;DHT22;6449;47.666;9.160;2024-03-02T00:21:06;5.20;99.90
12771;DHT22;6449;47.666;9.160;2024-03-02T00:26:03;5.20;99.90
12771;DHT22;6449;47.666;9.160;2024-03-02T00:30:59;5.20;99.90
12771;DHT22;6449;47.666;9.160;2024-03-02T00:35:54;5.30;99.90
12771;DHT22;6449;47.666;9.160;2024-03-02T00:40:48;5.10;99.90
12771;DHT22;6449;47.666;9.160;2024-03-02T00:45:43;5.10;99.90
12771;DHT22;6449;47.666;9.160;2024-03-02T00:50:37;5.20;99.90
12771;DHT22;6449;47.666;9.160;2024-03-02T00:55:30;5.20;99.90
12771;DHT22;6449;47.666;9.160;2024-03-02T01:00:24;5.40;99.90
12771;DHT22;6449;47.666;9.160;2024-03-02T01:05:18;5.40;99.90
12771;DHT22;6449;47.666;9.160;2024-03-02T01:10:12;5.40;99.90
12771;DHT22;6449;47.666;9.160;2024-03-02T01:15:07;5.30;99.90
12771;DHT22;6449;47.666;9.160;2024-03-02T01:20:01;5.30;99.90
12771;DHT22;6449;47.666;9.160;2024-03-02T01:24:56;5.30;99.90
12771;DHT22;6449;47.666;9.160;2024-03-02T01:29:49;5.30;99.90
12771;DHT22;6449;47.666;9.160;2024-03-02T01:34:42;5.30;99.90
12771;DHT22;6449;47.666;9.160;2024-03-02T01:39:36;5.30;99.90
12771;DHT22;6449;47.666;9.160;2024-03-02T01:44:31;5.40;99.90
12771;DHT22;6449;47.666;9.160;2024-03-02T01:49:24;5.30;99.90
12771;DHT22;6449;47.666;9.160;2024-03-02T01:54:17;5.30;99.90
12771;DHT22;6449;47.666;9.160;2024-03-02T01:59:11;5.20;99.90
12771;DHT22;6449;47.666;9.160;2024-03-02T02:04:06;5.20;99.90
12771;DHT22;6449;47.666;9.160;2024-03-02T02:09:00;5.20;99.90
12771;DHT22;6449;47.666;9.160;2024-03-02T02:13:54;5.10;99.90
12771;DHT22;6449;47.666;9.160;2024-03-02T02:18:48;5.10;99.90
12771;DHT22;6449;47.666;9.160;2024-03-02T02:23:43;5.10;99.90
12771;DHT22;6449;47.666;9.160;2024-03-02T02:28:40;5.10;99.90
12771;DHT22;6449;47.666;9.160;2024-03-02T02:33:39;5.10;99.90
12771;DHT22;6449;47.666;9.160;2024-03-02T02:38:33;5.20;99.90
12771;DHT22;6449;47.666;9.160;2024-03-02T02:43:32;5.20;99.90
12771;DHT22;6449;47.666;9.160;2024-03-02T02:48:25;5.20;99.90
12771;DHT22;6449;47.666;9.160;2024-03-02T02:53:18;5.20;99.90
12771;DHT22;6449;47.666;9.160;2024-03-02T02:58:12;5.10;99.90
12771;DHT22;6449;47.666;9.160;2024-03-02T03:03:07;5.10;99.90
12771;DHT22;6449;47.666;9.160;2024-03-02T03:08:01;5.10;99.90
12771;DHT22;6449;47.666;9.160;2024-03-02T03:12:54;5.10;99.90
12771;DHT22;6449;47.666;9.160;2024-03-02T03:17:48;5.10;99.90
12771;DHT22;6449;47.666;9.160;2024-03-02T03:22:44;5.20;99.90
12771;DHT22;6449;47.666;9.160;2024-03-02T03:27:37;5.20;99.90
12771;DHT22;6449;47.666;9.160;2024-03-02T03:32:31;5.10;99.90
12771;DHT22;6449;47.666;9.160;2024-03-02T03:37:24;4.90;99.90
12771;DHT22;6449;47.666;9.160;2024-03-02T03:42:26;4.80;99.90
12771;DHT22;6449;47.666;9.160;2024-03-02T03:47:19;4.90;99.90
12771;DHT22;6449;47.666;9.160;2024-03-02T03:52:12;5.00;99.90
12771;DHT22;6449;47.666;9.160;2024-03-02T03:57:06;5.00;99.90
12771;DHT22;6449;47.666;9.160;2024-03-02T04:02:00;5.20;99.90
12771;DHT22;6449;47.666;9.160;2024-03-02T04:06:54;5.20;99.90
12771;DHT22;6449;47.666;9.160;2024-03-02T04:11:48;5.10;99.90
12771;DHT22;6449;47.666;9.160;2024-03-02T04:16:41;5.10;99.90
12771;DHT22;6449;47.666;9.160;2024-03-02T04:21:36;5.10;99.90
12771;DHT22;6449;47.666;9.160;2024-03-02T04:26:29;5.20;99.90
12771;DHT22;6449;47.666;9.160;2024-03-02T04:31:22;5.20;99.90
12771;DHT22;6449;47.666;9.160;2024-03-02T04:36:16;5.10;99.90
12771;DHT22;6449;47.666;9.160;2024-03-02T04:41:11;5.20;99.90
12771;DHT22;6449;47.666;9.160;2024-03-02T04:46:05;5.10;99.90
12771;DHT22;6449;47.666;9.160;2024-03-02T04:50:59;5.00;99.90
12771;DHT22;6449;47.666;9.160;2024-03-02T04:55:52;5.00;99.90
12771;DHT22;6449;47.666;9.160;2024-03-02T05:01:12;5.00;99.90
12771;DHT22;6449;47.666;9.160;2024-03-02T05:06:06;5.00;99.90
12771;DHT22;6449;47.666;9.160;2024-03-02T05:11:00;5.00;99.90
12771;DHT22;6449;47.666;9.160;2024-03-02T05:16:15;5.00;99.90
12771;DHT22;6449;47.666;9.160;2024-03-02T05:21:09;5.10;99.90
12771;DHT22;6449;47.666;9.160;2024-03-02T05:26:03;5.10;99.90
12771;DHT22;6449;47.666;9.160;2024-03-02T05:30:57;5.10;99.90
12771;DHT22;6449;47.666;9.160;2024-03-02T05:35:52;5.10;99.90
12771;DHT22;6449;47.666;9.160;2024-03-02T05:40:45;5.00;99.90
12771;DHT22;6449;47.666;9.160;2024-03-02T05:45:39;5.00;99.90
12771;DHT22;6449;47.666;9.160;2024-03-02T05:50:32;5.00;99.90
12771;DHT22;6449;47.666;9.160;2024-03-02T05:55:27;5.00;99.90
12771;DHT22;6449;47.666;9.160;2024-03-02T06:00:21;4.90;99.90
12771;DHT22;6449;47.666;9.160;2024-03-02T06:05:15;5.00;99.90
12771;DHT22;6449;47.666;9.160;2024-03-02T06:10:09;5.00;99.90
12771;DHT22;6449;47.666;9.160;2024-03-02T06:15:07;5.10;99.90
12771;DHT22;6449;47.666;9.160;2024-03-02T06:20:01;5.20;99.90
12771;DHT22;6449;47.666;9.160;2024-03-02T06:24:55;5.20;99.90
12771;DHT22;6449;47.666;9.160;2024-03-02T06:29:48;5.20;99.90
12771;DHT22;6449;47.666;9.160;2024-03-02T06:34:44;5.00;99.90
12771;DHT22;6449;47.666;9.160;2024-03-02T06:39:38;5.00;99.90
12771;DHT22;6449;47.666;9.160;2024-03-02T06:44:31;4.90;99.90
12771;DHT22;6449;47.666;9.160;2024-03-02T06:49:24;5.00;99.90
12771;DHT22;6449;47.666;9.160;2024-03-02T06:54:19;4.90;99.90
12771;DHT22;6449;47.666;9.160;2024-03-02T06:59:14;5.00;99.90
12771;DHT22;6449;47.666;9.160;2024-03-02T07:04:08;5.00;99.90
12771;DHT22;6449;47.666;9.160;2024-03-02T07:09:01;4.90;99.90
12771;DHT22;6449;47.666;9.160;2024-03-02T07:13:56;5.00;99.90
12771;DHT22;6449;47.666;9.160;2024-03-02T07:18:49;5.00;99.90
12771;DHT22;6449;47.666;9.160;2024-03-02T07:23:44;5.00;99.90
12771;DHT22;6449;47.666;9.160;2024-03-02T07:28:37;5.10;99.90
12771;DHT22;6449;47.666;9.160;2024-03-02T07:33:33;5.10;99.90
12771;DHT22;6449;47.666;9.160;2024-03-02T07:38:26;5.10;99.90
12771;DHT22;6449;47.666;9.160;2024-03-02T07:43:21;5.20;99.90
12771;DHT22;6449;47.666;9.160;2024-03-02T07:48:15;5.20;99.90
12771;DHT22;6449;47.666;9.160;2024-03-02T07:53:10;5.20;99.90
12771;DHT22;6449;47.666;9.160;2024-03-02T07:58:06;5.20;99.90
12771;DHT22;6449;47.666;9.160;2024-03-02T08:03:00;5.20;99.90
12771;DHT22;6449;47.666;9.160;2024-03-02T08:07:56;5.20;99.90
12771;DHT22;6449;47.666;9.160;2024-03-02T08:12:51;5.20;99.90
12771;DHT22;6449;47.666;9.160;2024-03-02T08:17:44;5.30;99.90
12771;DHT22;6449;47.666;9.160;2024-03-02T08:22:41;5.20;99.90
12771;DHT22;6449;47.666;9.160;2024-03-02T08:27:35;5.30;99.90
12771;DHT22;6449;47.666;9.160;2024-03-02T08:32:30;5.50;99.90
12771;DHT22;6449;47.666;9.160;2024-03-02T08:37:23;5.60;99.90
12771;DHT22;6449;47.666;9.160;2024-03-02T08:42:17;5.70;99.90
12771;DHT22;6449;47.666;9.160;2024-03-02T08:47:10;5.80;99.90
12771;DHT22;6449;47.666;9.160;2024-03-02T08:52:05;5.70;99.90
12771;DHT22;6449;47.666;9.160;2024-03-02T08:56:59;5.70;99.90
12771;DHT22;6449;47.666;9.160;2024-03-02T09:01:53;5.70;99.90
12771;DHT22;6449;47.666;9.160;2024-03-02T09:06:46;5.80;99.90
12771;DHT22;6449;47.666;9.160;2024-03-02T09:11:41;5.80;99.90
12771;DHT22;6449;47.666;9.160;2024-03-02T09:16:35;5.70;99.90
12771;DHT22;6449;47.666;9.160;2024-03-02T09:21:28;5.70;99.90
12771;DHT22;6449;47.666;9.160;2024-03-02T09:26:22;5.70;99.90
12771;DHT22;6449;47.666;9.160;2024-03-02T09:31:18;5.70;99.90
12771;DHT22;6449;47.666;9.160;2024-03-02T09:36:17;5.80;99.90
12771;DHT22;6449;47.666;9.160;2024-03-02T09:41:11;5.80;99.90
12771;DHT22;6449;47.666;9.160;2024-03-02T09:46:05;5.90;99.90
12771;DHT22;6449;47.666;9.160;2024-03-02T09:51:01;5.90;99.90
12771;DHT22;6449;47.666;9.160;2024-03-02T09:55:55;6.00;99.90
12771;DHT22;6449;47.666;9.160;2024-03-02T10:00:48;6.10;99.90
12771;DHT22;6449;47.666;9.160;2024-03-02T10:05:42;6.10;99.90
12771;DHT22;6449;47.666;9.160;2024-03-02T10:10:40;6.10;99.90
12771;DHT22;6449;47.666;9.160;2024-03-02T10:15:35;6.10;99.90
12771;DHT22;6449;47.666;9.160;2024-03-02T10:20:30;6.10;99.90
12771;DHT22;6449;47.666;9.160;2024-03-02T10:25:29;6.20;99.90
12771;DHT22;6449;47.666;9.160;2024-03-02T10:30:43;6.30;99.90
12771;DHT22;6449;47.666;9.160;2024-03-02T10:35:41;6.50;99.90
12771;DHT22;6449;47.666;9.160;2024-03-02T10:40:37;6.50;99.90
12771;DHT22;6449;47.666;9.160;2024-03-02T10:45:30;6.70;99.90
12771;DHT22;6449;47.666;9.160;2024-03-02T10:50:25;6.80;99.90
12771;DHT22;6449;47.666;9.160;2024-03-02T10:55:19;6.90;99.90
12771;DHT22;6449;47.666;9.160;2024-03-02T11:00:13;6.90;99.90
12771;DHT22;6449;47.666;9.160;2024-03-02T11:05:11;6.80;99.90
12771;DHT22;6449;47.666;9.160;2024-03-02T11:10:08;6.80;99.90
12771;DHT22;6449;47.666;9.160;2024-03-02T11:15:07;6.70;99.90
12771;DHT22;6449;47.666;9.160;2024-03-02T11:20:05;6.80;99.90
12771;DHT22;6449;47.666;9.160;2024-03-02T11:25:01;7.00;99.90
12771;DHT22;6449;47.666;9.160;2024-03-02T11:29:56;7.10;99.90
12771;DHT22;6449;47.666;9.160;2024-03-02T11:34:50;7.10;99.90
12771;DHT22;6449;47.666;9.160;2024-03-02T11:39:44;7.30;99.90
12771;DHT22;6449;47.666;9.160;2024-03-02T11:44:39;7.50;99.90
12771;DHT22;6449;47.666;9.160;2024-03-02T11:49:39;7.60;99.90
12771;DHT22;6449;47.666;9.160;2024-03-02T11:54:34;7.70;99.90
12771;DHT22;6449;47.666;9.160;2024-03-02T11:59:28;7.80;99.90
12771;DHT22;6449;47.666;9.160;2024-03-02T12:04:23;7.90;99.90
12771;DHT22;6449;47.666;9.160;2024-03-02T12:09:18;8.00;99.90
12771;DHT22;6449;47.666;9.160;2024-03-02T12:14:12;8.10;99.90
12771;DHT22;6449;47.666;9.160;2024-03-02T12:19:05;8.10;99.90
12771;DHT22;6449;47.666;9.160;2024-03-02T12:23:59;8.20;99.90
12771;DHT22;6449;47.666;9.160;2024-03-02T12:28:55;8.30;99.90
12771;DHT22;6449;47.666;9.160;2024-03-02T12:33:50;8.40;99.90
12771;DHT22;6449;47.666;9.160;2024-03-02T12:38:44;8.50;99.90
12771;DHT22;6449;47.666;9.160;2024-03-02T12:43:38;8.50;99.90
12771;DHT22;6449;47.666;9.160;2024-03-02T12:48:34;8.60;99.90
12771;DHT22;6449;47.666;9.160;2024-03-02T12:53:28;8.70;99.90
12771;DHT22;6449;47.666;9.160;2024-03-02T12:58:22;8.70;99.90
12771;DHT22;6449;47.666;9.160;2024-03-02T13:03:18;8.80;99.90
12771;DHT22;6449;47.666;9.160;2024-03-02T13:08:16;8.80;99.90
12771;DHT22;6449;47.666;9.160;2024-03-02T13:13:10;8.90;99.90
12771;DHT22;6449;47.666;9.160;2024-03-02T13:18:04;9.00;99.90
12771;DHT22;6449;47.666;9.160;2024-03-02T13:23:01;8.90;99.90
12771;DHT22;6449;47.666;9.160;2024-03-02T13:27:56;9.00;99.90
12771;DHT22;6449;47.666;9.160;2024-03-02T13:32:50;9.10;99.90
12771;DHT22;6449;47.666;9.160;2024-03-02T13:37:44;9.30;99.90
12771;DHT22;6449;47.666;9.160;2024-03-02T13:42:41;9.50;99.90
12771;DHT22;6449;47.666;9.160;2024-03-02T13:47:36;9.70;99.90
12771;DHT22;6449;47.666;9.160;2024-03-02T13:52:30;9.80;99.90
12771;DHT22;6449;47.666;9.160;2024-03-02T13:57:23;10.00;99.90
12771;DHT22;6449;47.666;9.160;2024-03-02T14:02:18;10.00;99.90
12771;DHT22;6449;47.666;9.160;2024-03-02T14:07:13;10.10;99.90
12771;DHT22;6449;47.666;9.160;2024-03-02T14:12:07;10.20;99.90
12771;DHT22;6449;47.666;9.160;2024-03-02T14:17:04;10.20;99.90
12771;DHT22;6449;47.666;9.160;2024-03-02T14:22:02;10.30;99.90
12771;DHT22;6449;47.666;9.160;2024-03-02T14:26:59;10.30;99.90
12771;DHT22;6449;47.666;9.160;2024-03-02T14:32:10;10.20;99.90
12771;DHT22;6449;47.666;9.160;2024-03-02T14:37:04;10.10;99.90
12771;DHT22;6449;47.666;9.160;2024-03-02T14:41:59;10.10;99.90
12771;DHT22;6449;47.666;9.160;2024-03-02T14:46:53;10.20;99.90
12771;DHT22;6449;47.666;9.160;2024-03-02T14:51:46;10.20;99.90
12771;DHT22;6449;47.666;9.160;2024-03-02T14:56:41;10.30;99.90
12771;DHT22;6449;47.666;9.160;2024-03-02T15:01:36;10.20;99.90
12771;DHT22;6449;47.666;9.160;2024-03-02T15:06:30;10.10;99.90
12771;DHT22;6449;47.666;9.160;2024-03-02T15:11:24;10.10;99.90
12771;DHT22;6449;47.666;9.160;2024-03-02T15:16:18;10.10;99.90
12771;DHT22;6449;47.666;9.160;2024-03-02T15:21:13;10.10;99.90
12771;DHT22;6449;47.666;9.160;2024-03-02T15:26:06;10.20;99.90
12771;DHT22;6449;47.666;9.160;2024-03-02T15:31:02;10.20;99.90
12771;DHT22;6449;47.666;9.160;2024-03-02T15:35:58;10.10;99.90
12771;DHT22;6449;47.666;9.160;2024-03-02T15:40:54;10.10;99.90
12771;DHT22;6449;47.666;9.160;2024-03-02T15:45:47;10.00;99.90
12771;DHT22;6449;47.666;9.160;2024-03-02T15:50:41;9.80;99.90
12771;DHT22;6449;47.666;9.160;2024-03-02T15:55:34;9.80;99.90
12771;DHT22;6449;47.666;9.160;2024-03-02T16:00:31;9.70;99.90
12771;DHT22;6449;47.666;9.160;2024-03-02T16:05:24;9.70;99.90
12771;DHT22;6449;47.666;9.160;2024-03-02T16:10:18;9.60;99.90
12771;DHT22;6449;47.666;9.160;2024-03-02T16:15:11;9.50;99.90
12771;DHT22;6449;47.666;9.160;2024-03-02T16:20:08;9.40;99.90
12771;DHT22;6449;47.666;9.160;2024-03-02T16:25:02;9.20;99.90
12771;DHT22;6449;47.666;9.160;2024-03-02T16:29:57;9.10;99.90
12771;DHT22;6449;47.666;9.160;2024-03-02T16:34:51;9.00;99.90
12771;DHT22;6449;47.666;9.160;2024-03-02T16:39:46;8.90;99.90
12771;DHT22;6449;47.666;9.160;2024-03-02T16:44:41;8.80;99.90
12771;DHT22;6449;47.666;9.160;2024-03-02T16:49:35;8.70;99.90
12771;DHT22;6449;47.666;9.160;2024-03-02T16:54:29;8.70;99.90
12771;DHT22;6449;47.666;9.160;2024-03-02T16:59:24;8.60;99.90
12771;DHT22;6449;47.666;9.160;2024-03-02T17:04:17;8.60;99.90
12771;DHT22;6449;47.666;9.160;2024-03-02T17:09:13;8.60;99.90
12771;DHT22;6449;47.666;9.160;2024-03-02T17:14:06;8.50;99.90
12771;DHT22;6449;47.666;9.160;2024-03-02T17:19:01;8.60;99.90
12771;DHT22;6449;47.666;9.160;2024-03-02T17:23:55;8.50;99.90
12771;DHT22;6449;47.666;9.160;2024-03-02T17:28:52;8.40;99.90
12771;DHT22;6449;47.666;9.160;2024-03-02T17:33:46;8.30;99.90
12771;DHT22;6449;47.666;9.160;2024-03-02T17:38:43;8.30;99.90
12771;DHT22;6449;47.666;9.160;2024-03-02T17:43:37;8.30;99.90
12771;DHT22;6449;47.666;9.160;2024-03-02T17:48:31;8.20;99.90
12771;DHT22;6449;47.666;9.160;2024-03-02T17:53:25;8.20;99.90
12771;DHT22;6449;47.666;9.160;2024-03-02T17:58:20;8.20;99.90
12771;DHT22;6449;47.666;9.160;2024-03-02T18:03:13;8.20;99.90
12771;DHT22;6449;47.666;9.160;2024-03-02T18:08:07;8.20;99.90
12771;DHT22;6449;47.666;9.160;2024-03-02T18:13:00;8.20;99.90
12771;DHT22;6449;47.666;9.160;2024-03-02T18:17:55;8.10;99.90
12771;DHT22;6449;47.666;9.160;2024-03-02T18:22:49;8.10;99.90
12771;DHT22;6449;47.666;9.160;2024-03-02T18:27:48;8.10;99.90
12771;DHT22;6449;47.666;9.160;2024-03-02T18:32:41;8.00;99.90
12771;DHT22;6449;47.666;9.160;2024-03-02T18:37:36;7.90;99.90
12771;DHT22;6449;47.666;9.160;2024-03-02T18:42:30;7.70;99.90
12771;DHT22;6449;47.666;9.160;2024-03-02T18:47:24;7.70;99.90
12771;DHT22;6449;47.666;9.160;2024-03-02T18:52:18;7.70;99.90
12771;DHT22;6449;47.666;9.160;2024-03-02T18:57:13;7.60;99.90
12771;DHT22;6449;47.666;9.160;2024-03-02T19:02:06;7.50;99.90
12771;DHT22;6449;47.666;9.160;2024-03-02T19:07:00;7.40;99.90
12771;DHT22;6449;47.666;9.160;2024-03-02T19:11:53;7.40;99.90
12771;DHT22;6449;47.666;9.160;2024-03-02T19:16:49;7.40;99.90
12771;DHT22;6449;47.666;9.160;2024-03-02T19:21:43;7.40;99.90
12771;DHT22;6449;47.666;9.160;2024-03-02T19:26:46;7.30;99.90
12771;DHT22;6449;47.666;9.160;2024-03-02T19:31:40;7.30;99.90
12771;DHT22;6449;47.666;9.160;2024-03-02T19:36:36;7.00;99.90
12771;DHT22;6449;47.666;9.160;2024-03-02T19:41:29;7.00;99.90
12771;DHT22;6449;47.666;9.160;2024-03-02T19:46:23;6.90;99.90
12771;DHT22;6449;47.666;9.160;2024-03-02T19:51:16;6.90;99.90
12771;DHT22;6449;47.666;9.160;2024-03-02T19:56:18;6.80;99.90
12771;DHT22;6449;47.666;9.160;2024-03-02T20:01:12;6.70;99.90
12771;DHT22;6449;47.666;9.160;2024-03-02T20:06:06;6.80;99.90
12771;DHT22;6449;47.666;9.160;2024-03-02T20:11:02;6.70;99.90
12771;DHT22;6449;47.666;9.160;2024-03-02T20:15:57;6.70;99.90
12771;DHT22;6449;47.666;9.160;2024-03-02T20:20:51;6.60;99.90
12771;DHT22;6449;47.666;9.160;2024-03-02T20:25:45;6.50;99.90
12771;DHT22;6449;47.666;9.160;2024-03-02T20:30:41;6.30;99.90
12771;DHT22;6449;47.666;9.160;2024-03-02T20:35:36;6.30;99.90
12771;DHT22;6449;47.666;9.160;2024-03-02T20:40:30;6.30;99.90
12771;DHT22;6449;47.666;9.160;2024-03-02T20:45:24;6.30;99.90
12771;DHT22;6449;47.666;9.160;2024-03-02T20:50:23;6.20;99.90
12771;DHT22;6449;47.666;9.160;2024-03-02T20:55:17;6.10;99.90
12771;DHT22;6449;47.666;9.160;2024-03-02T21:00:11;6.20;99.90
12771;DHT22;6449;47.666;9.160;2024-03-02T21:05:06;6.10;99.90
12771;DHT22;6449;47.666;9.160;2024-03-02T21:10:00;6.00;99.90
12771;DHT22;6449;47.666;9.160;2024-03-02T21:14:55;6.00;99.90
12771;DHT22;6449;47.666;9.160;2024-03-02T21:19:49;6.00;99.90
12771;DHT22;6449;47.666;9.160;2024-03-02T21:24:42;6.00;99.90
12771;DHT22;6449;47.666;9.160;2024-03-02T21:29:37;5.90;99.90
12771;DHT22;6449;47.666;9.160;2024-03-02T21:34:32;5.90;99.90
12771;DHT22;6449;47.666;9.160;2024-03-02T21:39:26;5.90;99.90
12771;DHT22;6449;47.666;9.160;2024-03-02T21:44:30;5.70;99.90
12771;DHT22;6449;47.666;9.160;2024-03-02T21:49:23;5.90;99.90
12771;DHT22;6449;47.666;9.160;2024-03-02T21:54:18;5.90;99.90
12771;DHT22;6449;47.666;9.160;2024-03-02T21:59:12;5.80;99.90
12771;DHT22;6449;47.666;9.160;2024-03-02T22:04:05;5.70;99.90
12771;DHT22;6449;47.666;9.160;2024-03-02T22:08:59;5.50;99.90
12771;DHT22;6449;47.666;9.160;2024-03-02T22:13:54;5.50;99.90
12771;DHT22;6449;47.666;9.160;2024-03-02T22:18:47;5.60;99.90
12771;DHT22;6449;47.666;9.160;2024-03-02T22:23:43;5.70;99.90
12771;DHT22;6449;47.666;9.160;2024-03-02T22:28:36;5.60;99.90
12771;DHT22;6449;47.666;9.160;2024-03-02T22:33:31;5.40;99.90
12771;DHT22;6449;47.666;9.160;2024-03-02T22:38:25;5.50;99.90
12771;DHT22;6449;47.666;9.160;2024-03-02T22:43:18;5.40;99.90
12771;DHT22;6449;47.666;9.160;2024-03-02T22:48:11;5.60;99.90
12771;DHT22;6449;47.666;9.160;2024-03-02T22:53:06;5.50;99.90
12771;DHT22;6449;47.666;9.160;2024-03-02T22:58:00;5.50;99.90
12771;DHT22;6449;47.666;9.160;2024-03-02T23:02:53;5.60;99.90
12771;DHT22;6449;47.666;9.160;2024-03-02T23:07:47;5.50;99.90
12771;DHT22;6449;47.666;9.160;2024-03-02T23:12:42;5.50;99.90
12771;DHT22;6449;47.666;9.160;2024-03-02T23:17:36;5.50;99.90
12771;DHT22;6449;47.666;9.160;2024-03-02T23:22:29;5.40;99.90
12771;DHT22;6449;47.666;9.160;2024-03-02T23:27:22;5.30;99.90
12771;DHT22;6449;47.666;9.160;2024-03-02T23:32:17;5.30;99.90
12771;DHT22;6449;47.666;9.160;2024-03-02T23:37:10;5.40;99.90
12771;DHT22;6449;47.666;9.160;2024-03-02T23:42:04;5.40;99.90
12771;DHT22;6449;47.666;9.160;2024-03-02T23:46:58;5.40;99.90
12771;DHT22;6449;47.666;9.160;2024-03-02T23:51:53;5.50;99.90
12771;DHT22;6449;47.666;9.160;2024-03-02T23:56:46;5.20;99.90
